Carnival Pride — H3VU — position and weather

sailwx.info

Track history (hours):
 
Tides and Currents Weather Stations Pressure Air Temp Water Temp Dewpoint Dewpoint Depression Visibility Wind Speed Wind Dir Waves Ship Positions

Carnival Pride

Operator: Carnival Cruise Lines

Last reported at 2018-Sep-24 02:29 UTC. Time now 2018-Sep-24 21:20 UTC.
Position N 37°58' W 076°11'.

Type: Passenger vessel. MMSI: 354215000.

Date/timePositionNaut miles runAvg speedWind from/ knotsBaromVisibWave heightAir tempDewpointWater temp
2018-Sep-24 02:29N 37°58' W 076°11'4619.0
2018-Sep-24 00:05N 38°43' W 076°26'117.8
2018-Sep-24 00:02N 38°43' W 076°26'219.5
2018-Sep-23 23:57N 38°45' W 076°26'919.4
2018-Sep-23 23:30N 38°53' W 076°24'817.7
2018-Sep-23 23:03N 39°01' W 076°23'116.1
2018-Sep-23 23:00N 39°02' W 076°23'714.8
2018-Sep-23 22:30N 39°09' W 076°25'512.1
2018-Sep-23 22:03N 39°12' W 076°31'111.2
2018-Sep-23 22:00N 39°13' W 076°31'4 8.3
2018-Sep-23 21:30N 39°15' W 076°36'1 1.1
2018-Sep-23 21:00N 39°16' W 076°36'0 0.0
2018-Sep-23 20:27N 39°16' W 076°36'0 0.0
2018-Sep-23 20:03N 39°16' W 076°36'0 0.0
2018-Sep-23 20:00N 39°16' W 076°36'0 0.0
2018-Sep-23 19:27N 39°16' W 076°36'0 0.0
2018-Sep-23 19:03N 39°16' W 076°36'0 0.0
2018-Sep-23 18:57N 39°16' W 076°36'0 0.0
2018-Sep-23 18:27N 39°16' W 076°36'0 0.0
2018-Sep-23 18:03N 39°16' W 076°36'0 0.0
2018-Sep-23 18:00N 39°16' W 076°36'0 0.0
2018-Sep-23 17:30N 39°16' W 076°36'0 0.0
2018-Sep-23 17:03N 39°16' W 076°36'0 0.0
2018-Sep-23 17:00N 39°16' W 076°36'0 0.0
2018-Sep-23 16:30N 39°16' W 076°36'0 0.0
2018-Sep-23 16:03N 39°16' W 076°36'0 0.0
2018-Sep-23 16:00N 39°16' W 076°36'0 0.0
2018-Sep-23 15:30N 39°16' W 076°36'0 0.0
2018-Sep-23 15:00N 39°16' W 076°36'0 0.0
2018-Sep-23 14:28N 39°16' W 076°36'0 0.0
2018-Sep-23 13:26N 39°16' W 076°36'0 0.0
2018-Sep-23 13:02N 39°16' W 076°36'0 0.0
2018-Sep-23 12:59N 39°16' W 076°36'0 0.0
2018-Sep-23 12:30N 39°16' W 076°36'0 0.5
2018-Sep-23 12:03N 39°16' W 076°36'0 1.8
2018-Sep-23 12:00N 39°16' W 076°36'3 5.6
2018-Sep-23 11:30N 39°14' W 076°33'510.1
2018-Sep-23 11:03N 39°11' W 076°28'113.0
2018-Sep-23 11:00N 39°11' W 076°27'714.9
2018-Sep-23 10:31N 39°04' W 076°24'817.9
2018-Sep-23 10:04N 38°56' W 076°24'118.9
2018-Sep-23 10:01N 38°55' W 076°24'1018.9
2018-Sep-23 09:30N 38°46' W 076°26'918.8
2018-Sep-23 09:02N 38°37' W 076°26'118.7
2018-Sep-23 08:58N 38°36' W 076°26'1118.6
2018-Sep-23 08:22N 38°25' W 076°21'618.5
2018-Sep-23 08:03N 38°20' W 076°19'115.0
2018-Sep-23 08:00N 38°19' W 076°19'816.0
2018-Sep-23 07:30N 38°12' W 076°14'1018.6
2018-Sep-23 06:58N 38°02' W 076°13'918.3
2018-Sep-23 06:30N 37°54' W 076°09'817.9
2018-Sep-23 06:03N 37°46' W 076°11'  
2018-Sep-17 08:47N 36°28' W 075°32'1517.7
2018-Sep-17 07:57N 36°41' W 075°40'817.6
2018-Sep-17 07:28N 36°48' W 075°46'717.1
2018-Sep-17 07:02N 36°52' W 075°53'117.2
2018-Sep-17 06:58N 36°53' W 075°54'713.9
2018-Sep-17 06:28N 36°58' W 075°60'716.3
2018-Sep-17 06:03N 37°04' W 076°05'117.0
2018-Sep-17 06:00N 37°04' W 076°06'1816.7
2018-Sep-17 04:54N 37°23' W 076°05'717.8
2018-Sep-17 04:30N 37°30' W 076°03'716.3
2018-Sep-17 04:03N 37°37' W 076°06'117.7
2018-Sep-17 04:00N 37°37' W 076°06'917.5
2018-Sep-17 03:30N 37°45' W 076°11'918.9
2018-Sep-17 03:03N 37°54' W 076°10'318.3
2018-Sep-17 02:55N 37°56' W 076°10'718.1
2018-Sep-17 02:30N 38°03' W 076°13'1018.1
2018-Sep-17 01:58N 38°13' W 076°15'817.9
2018-Sep-17 01:31N 38°21' W 076°19'817.7
2018-Sep-17 01:04N 38°28' W 076°23'117.7
2018-Sep-17 01:01N 38°29' W 076°23'917.2
2018-Sep-17 00:30N 38°37' W 076°26'817.6
2018-Sep-17 00:03N 38°45' W 076°26'117.3
2018-Sep-17 00:00N 38°46' W 076°26'918.3
2018-Sep-16 23:30N 38°55' W 076°24'716.5
2018-Sep-16 23:03N 39°02' W 076°23'115.3
2018-Sep-16 23:00N 39°03' W 076°23'713.9
2018-Sep-16 22:30N 39°10' W 076°25'511.2
2018-Sep-16 22:03N 39°12' W 076°31'110.3
2018-Sep-16 22:00N 39°13' W 076°31'4 7.4
2018-Sep-16 21:30N 39°15' W 076°35'1 2.0
2018-Sep-16 21:03N 39°16' W 076°36'0 0.4
2018-Sep-16 21:00N 39°16' W 076°36'0 0.0
2018-Sep-16 20:30N 39°16' W 076°36'0 0.0
2018-Sep-16 20:03N 39°16' W 076°36'0 0.0
2018-Sep-16 19:58N 39°16' W 076°36'0 0.0
2018-Sep-16 19:30N 39°16' W 076°36'0 0.0
2018-Sep-16 19:03N 39°16' W 076°36'0 0.0
2018-Sep-16 19:00N 39°16' W 076°36'0 0.0
2018-Sep-16 18:30N 39°16' W 076°36'0 0.0
2018-Sep-16 18:03N 39°16' W 076°36'0 0.0
2018-Sep-16 18:00N 39°16' W 076°36'0 0.0
2018-Sep-16 17:30N 39°16' W 076°36'0 0.0
2018-Sep-16 17:03N 39°16' W 076°36'0 0.0
2018-Sep-16 17:00N 39°16' W 076°36'0 0.0
2018-Sep-16 16:30N 39°16' W 076°36'0 0.0
2018-Sep-16 15:36N 39°16' W 076°36'0 0.0
2018-Sep-16 15:28N 39°16' W 076°36'0 0.0
2018-Sep-16 14:58N 39°16' W 076°36'0 0.0
2018-Sep-16 14:10N 39°16' W 076°36'0 0.0
2018-Sep-16 13:26N 39°16' W 076°36'0 0.0
2018-Sep-16 13:03N 39°16' W 076°36'0 0.0
2018-Sep-16 12:59N 39°16' W 076°36'1 1.7
2018-Sep-16 12:30N 39°15' W 076°35'4 7.7
2018-Sep-16 12:03N 39°13' W 076°32'117.9
2018-Sep-16 12:00N 39°12' W 076°31'612.0
2018-Sep-16 11:30N 39°09' W 076°25'614.3
2018-Sep-16 11:03N 39°03' W 076°23'214.1
2018-Sep-16 10:56N 39°01' W 076°23'716.1
2018-Sep-16 10:30N 38°54' W 076°24'817.4
2018-Sep-16 10:02N 38°46' W 076°26'118.1
2018-Sep-16 09:58N 38°45' W 076°26'2517.8
2018-Sep-16 08:34N 38°20' W 076°20'211.9
2018-Sep-16 08:23N 38°18' W 076°19'715.2
2018-Sep-16 07:56N 38°12' W 076°15'1017.7
2018-Sep-16 07:21N 38°02' W 076°13'517.9
2018-Sep-16 07:03N 37°57' W 076°12'117.9
2018-Sep-16 07:00N 37°56' W 076°11'817.2
2018-Sep-16 06:30N 37°48' W 076°11'  
Track history (hours):
 
Tides and Currents Weather Stations Pressure Air Temp Water Temp Dewpoint Dewpoint Depression Visibility Wind Speed Wind Dir Waves Ship Positions

Carnival Pride

Operator: Carnival Cruise Lines

Last reported at 2018-Sep-24 02:29 UTC. Time now 2018-Sep-24 21:20 UTC.
Position N 37°58' W 076°11'.

Type: Passenger vessel. MMSI: 354215000.

Date/timePositionNaut miles runAvg speedWind from/ knotsBaromVisibWave heightAir tempDewpointWater temp
2018-Sep-24 02:29N 37°58' W 076°11'4619.0
2018-Sep-24 00:05N 38°43' W 076°26'117.8
2018-Sep-24 00:02N 38°43' W 076°26'219.5
2018-Sep-23 23:57N 38°45' W 076°26'919.4
2018-Sep-23 23:30N 38°53' W 076°24'817.7
2018-Sep-23 23:03N 39°01' W 076°23'116.1
2018-Sep-23 23:00N 39°02' W 076°23'714.8
2018-Sep-23 22:30N 39°09' W 076°25'512.1
2018-Sep-23 22:03N 39°12' W 076°31'111.2
2018-Sep-23 22:00N 39°13' W 076°31'4 8.3
2018-Sep-23 21:30N 39°15' W 076°36'1 1.1
2018-Sep-23 21:00N 39°16' W 076°36'0 0.0
2018-Sep-23 20:27N 39°16' W 076°36'0 0.0
2018-Sep-23 20:03N 39°16' W 076°36'0 0.0
2018-Sep-23 20:00N 39°16' W 076°36'0 0.0
2018-Sep-23 19:27N 39°16' W 076°36'0 0.0
2018-Sep-23 19:03N 39°16' W 076°36'0 0.0
2018-Sep-23 18:57N 39°16' W 076°36'0 0.0
2018-Sep-23 18:27N 39°16' W 076°36'0 0.0
2018-Sep-23 18:03N 39°16' W 076°36'0 0.0
2018-Sep-23 18:00N 39°16' W 076°36'0 0.0
2018-Sep-23 17:30N 39°16' W 076°36'0 0.0
2018-Sep-23 17:03N 39°16' W 076°36'0 0.0
2018-Sep-23 17:00N 39°16' W 076°36'0 0.0
2018-Sep-23 16:30N 39°16' W 076°36'0 0.0
2018-Sep-23 16:03N 39°16' W 076°36'0 0.0
2018-Sep-23 16:00N 39°16' W 076°36'0 0.0
2018-Sep-23 15:30N 39°16' W 076°36'0 0.0
2018-Sep-23 15:00N 39°16' W 076°36'0 0.0
2018-Sep-23 14:28N 39°16' W 076°36'0 0.0
2018-Sep-23 13:26N 39°16' W 076°36'0 0.0
2018-Sep-23 13:02N 39°16' W 076°36'0 0.0
2018-Sep-23 12:59N 39°16' W 076°36'0 0.0
2018-Sep-23 12:30N 39°16' W 076°36'0 0.5
2018-Sep-23 12:03N 39°16' W 076°36'0 1.8
2018-Sep-23 12:00N 39°16' W 076°36'3 5.6
2018-Sep-23 11:30N 39°14' W 076°33'510.1
2018-Sep-23 11:03N 39°11' W 076°28'113.0
2018-Sep-23 11:00N 39°11' W 076°27'714.9
2018-Sep-23 10:31N 39°04' W 076°24'817.9
2018-Sep-23 10:04N 38°56' W 076°24'118.9
2018-Sep-23 10:01N 38°55' W 076°24'1018.9
2018-Sep-23 09:30N 38°46' W 076°26'918.8
2018-Sep-23 09:02N 38°37' W 076°26'118.7
2018-Sep-23 08:58N 38°36' W 076°26'1118.6
2018-Sep-23 08:22N 38°25' W 076°21'618.5
2018-Sep-23 08:03N 38°20' W 076°19'115.0
2018-Sep-23 08:00N 38°19' W 076°19'816.0
2018-Sep-23 07:30N 38°12' W 076°14'1018.6
2018-Sep-23 06:58N 38°02' W 076°13'918.3
2018-Sep-23 06:30N 37°54' W 076°09'817.9
2018-Sep-23 06:03N 37°46' W 076°11'  
2018-Sep-17 08:47N 36°28' W 075°32'1517.7
2018-Sep-17 07:57N 36°41' W 075°40'817.6
2018-Sep-17 07:28N 36°48' W 075°46'717.1
2018-Sep-17 07:02N 36°52' W 075°53'117.2
2018-Sep-17 06:58N 36°53' W 075°54'713.9
2018-Sep-17 06:28N 36°58' W 075°60'716.3
2018-Sep-17 06:03N 37°04' W 076°05'117.0
2018-Sep-17 06:00N 37°04' W 076°06'1816.7
2018-Sep-17 04:54N 37°23' W 076°05'717.8
2018-Sep-17 04:30N 37°30' W 076°03'716.3
2018-Sep-17 04:03N 37°37' W 076°06'117.7
2018-Sep-17 04:00N 37°37' W 076°06'917.5
2018-Sep-17 03:30N 37°45' W 076°11'918.9
2018-Sep-17 03:03N 37°54' W 076°10'318.3
2018-Sep-17 02:55N 37°56' W 076°10'718.1
2018-Sep-17 02:30N 38°03' W 076°13'1018.1
2018-Sep-17 01:58N 38°13' W 076°15'817.9
2018-Sep-17 01:31N 38°21' W 076°19'817.7
2018-Sep-17 01:04N 38°28' W 076°23'117.7
2018-Sep-17 01:01N 38°29' W 076°23'917.2
2018-Sep-17 00:30N 38°37' W 076°26'817.6
2018-Sep-17 00:03N 38°45' W 076°26'117.3
2018-Sep-17 00:00N 38°46' W 076°26'918.3
2018-Sep-16 23:30N 38°55' W 076°24'716.5
2018-Sep-16 23:03N 39°02' W 076°23'115.3
2018-Sep-16 23:00N 39°03' W 076°23'713.9
2018-Sep-16 22:30N 39°10' W 076°25'511.2
2018-Sep-16 22:03N 39°12' W 076°31'110.3
2018-Sep-16 22:00N 39°13' W 076°31'4 7.4
2018-Sep-16 21:30N 39°15' W 076°35'1 2.0
2018-Sep-16 21:03N 39°16' W 076°36'0 0.4
2018-Sep-16 21:00N 39°16' W 076°36'0 0.0
2018-Sep-16 20:30N 39°16' W 076°36'0 0.0
2018-Sep-16 20:03N 39°16' W 076°36'0 0.0
2018-Sep-16 19:58N 39°16' W 076°36'0 0.0
2018-Sep-16 19:30N 39°16' W 076°36'0 0.0
2018-Sep-16 19:03N 39°16' W 076°36'0 0.0
2018-Sep-16 19:00N 39°16' W 076°36'0 0.0
2018-Sep-16 18:30N 39°16' W 076°36'0 0.0
2018-Sep-16 18:03N 39°16' W 076°36'0 0.0
2018-Sep-16 18:00N 39°16' W 076°36'0 0.0
2018-Sep-16 17:30N 39°16' W 076°36'0 0.0
2018-Sep-16 17:03N 39°16' W 076°36'0 0.0
2018-Sep-16 17:00N 39°16' W 076°36'0 0.0
2018-Sep-16 16:30N 39°16' W 076°36'0 0.0
2018-Sep-16 15:36N 39°16' W 076°36'0 0.0
2018-Sep-16 15:28N 39°16' W 076°36'0 0.0
2018-Sep-16 14:58N 39°16' W 076°36'0 0.0
2018-Sep-16 14:10N 39°16' W 076°36'0 0.0
2018-Sep-16 13:26N 39°16' W 076°36'0 0.0
2018-Sep-16 13:03N 39°16' W 076°36'0 0.0
2018-Sep-16 12:59N 39°16' W 076°36'1 1.7
2018-Sep-16 12:30N 39°15' W 076°35'4 7.7
2018-Sep-16 12:03N 39°13' W 076°32'117.9
2018-Sep-16 12:00N 39°12' W 076°31'612.0
2018-Sep-16 11:30N 39°09' W 076°25'614.3
2018-Sep-16 11:03N 39°03' W 076°23'214.1
2018-Sep-16 10:56N 39°01' W 076°23'716.1
2018-Sep-16 10:30N 38°54' W 076°24'817.4
2018-Sep-16 10:02N 38°46' W 076°26'118.1
2018-Sep-16 09:58N 38°45' W 076°26'2517.8
2018-Sep-16 08:34N 38°20' W 076°20'211.9
2018-Sep-16 08:23N 38°18' W 076°19'715.2
2018-Sep-16 07:56N 38°12' W 076°15'1017.7
2018-Sep-16 07:21N 38°02' W 076°13'517.9
2018-Sep-16 07:03N 37°57' W 076°12'117.9
2018-Sep-16 07:00N 37°56' W 076°11'817.2
2018-Sep-16 06:30N 37°48' W 076°11'  

Dump ship's entire track history